Time;durP1;ratioP1;P1;durP2;ratioP2;P2;SDS_P1;SDS_P2;PMS_P1;PMS_P2;Temp;Humidity;BMP_temperature;BMP_pressure;BME280_temperature;BME280_humidity;BME280_pressure;Samples;Min_cycle;Max_cycle;Signal;HPM_P1;HPM_P2
2021/05/03 00:01:11;;;;;;;0.77;0.50;;;4.70;99.90;;;;;;5039697;28;20708;-79
2021/05/03 00:03:37;;;;;;;0.63;0.63;;;4.70;99.90;;;;;;5038415;28;20194;-78
2021/05/03 00:06:03;;;;;;;0.93;0.50;;;4.60;99.90;;;;;;5040815;28;20215;-79
2021/05/03 00:08:28;;;;;;;1.30;0.83;;;4.50;99.90;;;;;;5037714;28;20183;-79
2021/05/03 00:10:54;;;;;;;1.40;1.10;;;4.50;99.90;;;;;;5037295;28;20175;-80
2021/05/03 00:13:20;;;;;;;2.93;1.17;;;4.40;99.90;;;;;;5039831;28;20529;-78
2021/05/03 00:15:47;;;;;;;1.43;1.10;;;4.40;99.90;;;;;;5038199;28;20314;-80
2021/05/03 00:18:12;;;;;;;1.63;1.23;;;4.50;99.90;;;;;;5037110;28;20171;-79
2021/05/03 00:20:38;;;;;;;1.20;1.10;;;4.60;99.90;;;;;;5035342;28;20175;-78
2021/05/03 00:23:04;;;;;;;0.70;0.67;;;4.70;99.90;;;;;;5037214;28;20770;-79
2021/05/03 00:25:30;;;;;;;4.43;1.40;;;4.70;99.90;;;;;;5036191;28;20203;-79
2021/05/03 00:27:56;;;;;;;0.90;0.70;;;4.80;99.90;;;;;;5036369;28;20558;-79
2021/05/03 00:30:22;;;;;;;0.70;0.60;;;4.70;99.90;;;;;;5035721;28;20193;-79
2021/05/03 00:32:48;;;;;;;0.70;0.70;;;4.70;99.90;;;;;;5032509;28;20190;-79
2021/05/03 00:35:17;;;;;;;1.00;0.90;;;4.70;99.90;;;;;;5031403;28;20216;-79
2021/05/03 00:37:42;;;;;;;1.50;1.40;;;4.80;99.90;;;;;;5032264;28;20232;-78
2021/05/03 00:40:09;;;;;;;2.23;1.13;;;4.80;99.90;;;;;;5028164;28;20258;-79
2021/05/03 00:42:35;;;;;;;3.13;1.17;;;4.90;99.90;;;;;;5029726;28;20615;-78
2021/05/03 00:45:20;;;;;;;3.23;0.97;;;4.80;99.90;;;;;;5032120;28;20230;-79
2021/05/03 00:47:47;;;;;;;0.90;0.77;;;4.80;99.90;;;;;;5033426;28;20816;-81
2021/05/03 00:50:15;;;;;;;0.80;0.80;;;4.80;99.90;;;;;;5033502;28;20256;-78
2021/05/03 00:52:41;;;;;;;0.73;0.70;;;4.80;99.90;;;;;;5031569;28;20201;-80
2021/05/03 00:55:07;;;;;;;1.23;0.90;;;4.80;99.90;;;;;;5031123;28;20270;-79
2021/05/03 00:57:33;;;;;;;0.77;0.60;;;4.70;99.90;;;;;;5031346;28;20221;-80
2021/05/03 00:59:59;;;;;;;0.80;0.70;;;4.70;99.90;;;;;;5032561;28;20214;-79
2021/05/03 01:02:24;;;;;;;0.80;0.80;;;4.70;99.90;;;;;;5031270;28;20749;-78
2021/05/03 01:04:50;;;;;;;2.33;0.87;;;4.60;99.90;;;;;;5029961;28;20231;-78
2021/05/03 01:07:16;;;;;;;0.93;0.80;;;4.60;99.90;;;;;;5030673;28;20256;-77
2021/05/03 01:09:42;;;;;;;2.80;1.13;;;4.70;99.90;;;;;;5030038;28;20174;-81
2021/05/03 01:12:11;;;;;;;1.43;1.07;;;4.60;99.90;;;;;;5025896;28;20179;-76
2021/05/03 01:14:37;;;;;;;1.60;0.90;;;4.50;99.90;;;;;;5025669;28;20753;-78
2021/05/03 01:17:03;;;;;;;1.10;0.87;;;4.50;99.90;;;;;;5026096;28;20191;-79
2021/05/03 01:19:30;;;;;;;1.00;0.80;;;4.40;99.90;;;;;;5026351;28;20215;-78
2021/05/03 01:21:56;;;;;;;4.47;1.20;;;4.40;99.90;;;;;;5028976;28;20297;-82
2021/05/03 01:24:21;;;;;;;1.17;0.67;;;4.40;99.90;;;;;;5025913;28;20187;-77
2021/05/03 01:26:47;;;;;;;0.80;0.60;;;4.50;99.90;;;;;;5025298;28;20182;-78
2021/05/03 01:29:14;;;;;;;3.37;1.63;;;4.60;99.90;;;;;;5024947;28;21096;-78
2021/05/03 01:31:41;;;;;;;1.07;0.97;;;4.50;99.90;;;;;;5026571;28;20748;-78
2021/05/03 01:34:08;;;;;;;2.70;0.93;;;4.50;99.90;;;;;;5025928;28;20210;-81
2021/05/03 01:36:41;;;;;;;2.03;1.00;;;4.50;99.90;;;;;;5027547;28;20183;-78
2021/05/03 01:39:09;;;;;;;1.40;1.00;;;4.50;99.90;;;;;;5025888;28;20195;-77
2021/05/03 01:41:35;;;;;;;1.77;1.00;;;4.60;99.90;;;;;;5027718;28;20268;-78
2021/05/03 01:44:02;;;;;;;0.77;0.70;;;4.50;99.90;;;;;;5027113;28;20700;-77
2021/05/03 01:46:29;;;;;;;2.50;1.27;;;4.50;99.90;;;;;;5026451;28;20214;-77
2021/05/03 01:48:59;;;;;;;1.40;1.10;;;4.50;99.90;;;;;;5042536;28;20191;-78
2021/05/03 01:51:24;;;;;;;0.70;0.70;;;4.50;99.90;;;;;;5027321;28;20953;-76
2021/05/03 01:53:50;;;;;;;0.90;0.80;;;4.50;99.90;;;;;;5025321;28;20186;-77
2021/05/03 01:56:17;;;;;;;1.67;1.40;;;4.40;99.90;;;;;;5027030;28;20203;-81
2021/05/03 01:58:42;;;;;;;0.70;0.70;;;4.40;99.90;;;;;;5041818;28;20186;-78
2021/05/03 02:01:08;;;;;;;0.53;0.53;;;4.30;99.90;;;;;;5027457;28;20206;-78
2021/05/03 02:03:34;;;;;;;0.63;0.53;;;4.30;99.90;;;;;;5025782;28;20285;-77
2021/05/03 02:06:00;;;;;;;1.10;1.00;;;4.30;99.90;;;;;;5027473;28;20207;-77
2021/05/03 02:08:25;;;;;;;0.67;0.67;;;4.30;99.90;;;;;;5025537;28;20170;-77
2021/05/03 02:10:52;;;;;;;0.80;0.80;;;4.30;99.90;;;;;;5027137;28;20574;-78
2021/05/03 02:13:18;;;;;;;0.80;0.67;;;4.30;99.90;;;;;;5025352;28;20201;-77
2021/05/03 02:15:48;;;;;;;1.10;0.70;;;4.10;99.90;;;;;;5041909;28;20684;-78
2021/05/03 02:18:15;;;;;;;0.60;0.60;;;4.20;99.90;;;;;;5032747;28;20190;-77
2021/05/03 02:20:41;;;;;;;0.70;0.70;;;4.20;99.90;;;;;;5025950;28;20194;-80
2021/05/03 02:23:07;;;;;;;2.13;0.70;;;4.20;99.90;;;;;;5026324;28;20390;-77
2021/05/03 02:25:33;;;;;;;0.50;0.30;;;4.10;99.90;;;;;;5025112;28;20676;-76
2021/05/03 02:27:59;;;;;;;1.13;1.00;;;4.10;99.90;;;;;;5025347;28;20680;-78
2021/05/03 02:30:26;;;;;;;1.60;1.23;;;4.10;99.90;;;;;;5025399;28;20214;-77
2021/05/03 02:32:52;;;;;;;0.77;0.70;;;4.00;99.90;;;;;;5024974;28;20183;-77
2021/05/03 02:35:20;;;;;;;1.20;0.87;;;4.00;99.90;;;;;;5024572;28;20268;-75
2021/05/03 02:37:49;;;;;;;0.73;0.73;;;4.00;99.90;;;;;;5024476;28;20687;-76
2021/05/03 02:40:17;;;;;;;0.63;0.57;;;4.00;99.90;;;;;;5024932;28;20183;-77
2021/05/03 02:42:51;;;;;;;0.90;0.67;;;4.00;99.90;;;;;;5031902;28;20256;-77
2021/05/03 02:45:18;;;;;;;1.80;0.90;;;4.00;99.90;;;;;;5031986;28;20645;-80
2021/05/03 02:47:44;;;;;;;1.20;1.10;;;3.90;99.90;;;;;;5025789;28;20182;-77
2021/05/03 02:50:11;;;;;;;3.23;1.33;;;3.90;99.90;;;;;;5024580;28;20273;-77
2021/05/03 02:52:37;;;;;;;1.10;1.00;;;3.90;99.90;;;;;;5024949;28;20274;-77
2021/05/03 02:55:04;;;;;;;1.00;0.80;;;4.00;99.90;;;;;;5024660;28;20293;-79
2021/05/03 02:57:29;;;;;;;1.23;1.07;;;3.90;99.90;;;;;;5025098;28;20189;-77
2021/05/03 02:59:55;;;;;;;1.47;0.60;;;3.90;99.90;;;;;;5025229;28;20187;-77
2021/05/03 03:02:21;;;;;;;1.03;0.90;;;3.90;99.90;;;;;;5024745;28;20265;-80
2021/05/03 03:04:46;;;;;;;1.40;0.93;;;3.90;99.90;;;;;;5023935;28;20211;-80
2021/05/03 03:07:12;;;;;;;1.70;0.90;;;3.90;99.90;;;;;;5024396;28;20555;-78
2021/05/03 03:09:37;;;;;;;1.37;1.27;;;3.90;99.90;;;;;;5025042;28;20178;-76
2021/05/03 03:12:04;;;;;;;0.80;0.80;;;3.80;99.90;;;;;;5024779;28;20179;-77
2021/05/03 03:14:30;;;;;;;1.90;1.00;;;3.80;99.90;;;;;;5024632;28;20680;-78
2021/05/03 03:16:56;;;;;;;2.10;1.03;;;3.80;99.90;;;;;;5024675;28;20194;-78
2021/05/03 03:19:21;;;;;;;2.40;1.07;;;3.80;99.90;;;;;;5024307;28;20547;-77
2021/05/03 03:21:47;;;;;;;1.40;0.97;;;3.80;99.90;;;;;;5024564;28;20743;-77
2021/05/03 03:24:13;;;;;;;1.27;0.97;;;3.70;99.90;;;;;;5024249;28;20186;-77
2021/05/03 03:26:38;;;;;;;0.80;0.70;;;3.70;99.90;;;;;;5026825;28;20178;-77
2021/05/03 03:29:05;;;;;;;1.87;1.23;;;3.60;99.90;;;;;;5024278;28;20197;-79
2021/05/03 03:31:31;;;;;;;1.23;0.67;;;3.60;99.90;;;;;;5022319;28;20249;-79
2021/05/03 03:33:57;;;;;;;1.67;1.00;;;3.50;99.90;;;;;;5022502;28;20182;-77
2021/05/03 03:36:23;;;;;;;2.63;0.63;;;3.50;99.90;;;;;;5022723;28;20198;-78
2021/05/03 03:38:48;;;;;;;0.50;0.50;;;3.50;99.90;;;;;;5024182;28;20237;-77
2021/05/03 03:41:14;;;;;;;1.33;1.13;;;3.50;99.90;;;;;;5022440;28;20695;-77
2021/05/03 03:43:40;;;;;;;1.93;1.20;;;3.40;99.90;;;;;;5023791;28;20194;-77
2021/05/03 03:46:06;;;;;;;1.20;1.03;;;3.40;99.90;;;;;;5023610;28;20202;-77
2021/05/03 03:48:31;;;;;;;1.43;1.03;;;3.40;99.90;;;;;;5025810;28;20696;-80
2021/05/03 03:50:57;;;;;;;1.77;1.30;;;3.40;99.90;;;;;;5024608;28;20179;-77
2021/05/03 03:53:23;;;;;;;1.73;1.33;;;3.40;99.90;;;;;;5024887;28;20265;-77
2021/05/03 03:55:48;;;;;;;2.57;1.47;;;3.30;99.90;;;;;;5025737;28;20657;-78
2021/05/03 03:58:14;;;;;;;1.00;0.90;;;3.30;99.90;;;;;;5032310;28;20190;-77
2021/05/03 04:00:40;;;;;;;1.20;1.00;;;3.30;99.90;;;;;;5024129;28;20183;-77
2021/05/03 04:03:06;;;;;;;1.13;1.00;;;3.30;99.90;;;;;;5025446;28;20285;-78
2021/05/03 04:08:20;;;;;;;1.73;1.23;;;3.40;99.90;;;;;;5025923;28;20203;-77
2021/05/03 04:24:25;;;;;;;1.90;1.20;;;3.50;99.90;;;;;;5028493;28;20182;-78
2021/05/03 04:26:50;;;;;;;1.50;0.90;;;3.50;99.90;;;;;;5027203;28;20244;-78
2021/05/03 04:29:16;;;;;;;1.90;1.47;;;3.50;99.90;;;;;;5027545;28;20191;-82
2021/05/03 04:31:42;;;;;;;1.40;1.30;;;3.50;99.90;;;;;;5027162;28;20210;-77
2021/05/03 04:34:07;;;;;;;1.30;1.10;;;3.50;99.90;;;;;;5028528;28;20285;-77
2021/05/03 04:36:33;;;;;;;2.37;1.70;;;3.70;99.90;;;;;;5028788;28;20209;-78
2021/05/03 04:38:58;;;;;;;1.43;1.10;;;3.60;99.90;;;;;;5028693;28;20655;-78
2021/05/03 04:41:24;;;;;;;2.33;1.80;;;3.70;99.90;;;;;;5027204;28;20195;-76
2021/05/03 04:43:50;;;;;;;1.87;1.63;;;3.80;99.90;;;;;;5028780;28;20178;-76
2021/05/03 04:46:18;;;;;;;1.33;1.23;;;4.10;99.90;;;;;;5043247;28;20688;-77
2021/05/03 04:48:44;;;;;;;1.70;1.33;;;4.30;99.90;;;;;;5028222;28;20262;-76
2021/05/03 04:51:10;;;;;;;3.97;1.20;;;4.80;99.90;;;;;;5026743;28;20325;-77
2021/05/03 04:53:36;;;;;;;1.27;1.00;;;5.00;99.90;;;;;;5027959;28;20186;-78
2021/05/03 04:56:02;;;;;;;2.20;1.23;;;5.20;99.90;;;;;;5028538;28;20207;-79
2021/05/03 04:58:28;;;;;;;1.03;0.87;;;5.70;99.90;;;;;;5033326;28;20264;-79
2021/05/03 05:00:54;;;;;;;1.70;1.20;;;6.70;99.90;;;;;;5026705;28;20209;-78
2021/05/03 05:03:19;;;;;;;1.60;1.50;;;7.40;99.90;;;;;;5027365;28;20193;-77
2021/05/03 05:05:48;;;;;;;4.13;1.20;;;8.00;99.90;;;;;;5025667;28;20392;-78
2021/05/03 05:08:13;;;;;;;1.43;1.13;;;8.50;99.90;;;;;;5027506;28;20205;-78
2021/05/03 05:10:39;;;;;;;1.00;0.90;;;8.70;99.90;;;;;;5025416;28;20677;-78
2021/05/03 05:13:05;;;;;;;1.50;1.13;;;9.10;99.90;;;;;;5025688;28;20229;-78
2021/05/03 05:15:30;;;;;;;1.23;1.13;;;9.40;99.90;;;;;;5027700;28;20199;-78
2021/05/03 05:17:56;;;;;;;1.37;1.00;;;9.80;99.90;;;;;;5030364;28;21149;-78
2021/05/03 05:20:22;;;;;;;1.30;1.20;;;9.90;99.90;;;;;;5034028;28;20251;-81
2021/05/03 05:22:48;;;;;;;2.47;1.27;;;10.00;99.90;;;;;;5030559;28;20703;-80
2021/05/03 05:25:14;;;;;;;1.20;1.03;;;10.20;99.90;;;;;;5026416;28;20742;-79
2021/05/03 05:27:40;;;;;;;1.83;1.40;;;10.60;99.90;;;;;;5026021;28;20185;-78
2021/05/03 05:30:07;;;;;;;1.47;1.37;;;10.60;99.90;;;;;;5026064;28;21195;-77
2021/05/03 05:32:33;;;;;;;1.20;0.97;;;10.80;99.90;;;;;;5027424;28;20194;-77
2021/05/03 05:34:58;;;;;;;1.60;1.23;;;11.10;99.90;;;;;;5025695;28;20587;-80
2021/05/03 05:37:24;;;;;;;1.42;1.15;;;11.20;99.90;;;;;;5026204;28;21051;-78
2021/05/03 05:39:49;;;;;;;1.92;1.20;;;11.20;99.90;;;;;;5027223;28;20183;-78
2021/05/03 05:42:15;;;;;;;1.30;1.20;;;11.40;99.90;;;;;;5027336;28;20205;-78
2021/05/03 05:44:41;;;;;;;2.45;1.20;;;11.60;99.90;;;;;;5025529;28;20195;-80
2021/05/03 05:47:06;;;;;;;1.27;1.17;;;11.80;99.90;;;;;;5025820;28;20269;-77
2021/05/03 05:49:32;;;;;;;1.60;1.50;;;11.50;99.90;;;;;;5027470;28;20179;-78
2021/05/03 05:51:58;;;;;;;1.40;1.30;;;11.90;99.90;;;;;;5027300;28;20256;-79
2021/05/03 05:54:25;;;;;;;1.92;1.60;;;12.00;99.90;;;;;;5031104;28;20213;-77
2021/05/03 05:56:50;;;;;;;1.35;1.25;;;11.60;99.90;;;;;;5049422;28;20189;-77
2021/05/03 05:59:17;;;;;;;2.60;1.65;;;11.70;99.90;;;;;;5049823;28;20186;-78
2021/05/03 06:01:44;;;;;;;1.50;1.17;;;11.80;99.90;;;;;;5030537;28;20281;-79
2021/05/03 06:04:10;;;;;;;2.97;1.45;;;11.80;99.90;;;;;;5030458;28;20186;-82
2021/05/03 06:06:35;;;;;;;1.33;1.23;;;12.20;99.90;;;;;;5030477;28;20179;-81
2021/05/03 06:09:01;;;;;;;1.73;1.50;;;12.40;99.90;;;;;;5030602;28;20190;-79
2021/05/03 06:11:28;;;;;;;1.30;1.20;;;12.60;99.90;;;;;;5030251;28;20228;-81
2021/05/03 06:13:53;;;;;;;2.22;1.70;;;12.40;99.90;;;;;;5029476;28;20771;-80
2021/05/03 06:16:19;;;;;;;1.40;1.30;;;12.70;99.90;;;;;;5030248;28;20270;-80
2021/05/03 06:18:44;;;;;;;3.00;1.92;;;12.80;99.90;;;;;;5028230;28;20560;-81
2021/05/03 06:21:10;;;;;;;2.70;1.40;;;12.30;99.90;;;;;;5028618;28;20191;-80
2021/05/03 06:23:36;;;;;;;1.00;1.00;;;11.90;99.90;;;;;;5029846;28;20171;-81
2021/05/03 06:26:01;;;;;;;1.92;1.40;;;11.90;99.90;;;;;;5028954;28;20210;-78
2021/05/03 06:28:27;;;;;;;1.73;1.27;;;11.80;99.90;;;;;;5022635;28;20178;-80
2021/05/03 06:30:56;;;;;;;2.03;1.23;;;11.10;99.90;;;;;;5028860;28;20207;-80
2021/05/03 06:33:22;;;;;;;3.43;1.27;;;11.00;99.90;;;;;;5029330;28;20276;-79
2021/05/03 06:35:48;;;;;;;1.70;1.17;;;10.10;99.90;;;;;;5029125;28;20664;-80
2021/05/03 06:38:14;;;;;;;1.63;1.00;;;9.40;99.90;;;;;;5028873;28;20664;-80
2021/05/03 06:40:40;;;;;;;1.83;1.17;;;8.90;99.90;;;;;;5028187;28;20186;-80
2021/05/03 06:43:05;;;;;;;1.90;1.30;;;9.10;99.90;;;;;;5028977;28;20261;-80
2021/05/03 06:45:33;;;;;;;0.93;0.83;;;9.20;99.90;;;;;;5028478;28;20214;-80
2021/05/03 06:47:59;;;;;;;1.30;0.90;;;9.20;99.90;;;;;;5028030;28;20187;-78
2021/05/03 06:50:24;;;;;;;1.17;0.90;;;9.10;99.90;;;;;;5029693;28;20190;-81
2021/05/03 06:52:51;;;;;;;1.37;1.27;;;8.80;99.90;;;;;;5028003;28;21026;-79
2021/05/03 06:55:16;;;;;;;0.70;0.70;;;8.80;99.90;;;;;;5028497;28;20242;-79
2021/05/03 06:57:43;;;;;;;1.20;1.07;;;8.60;99.90;;;;;;5032669;28;20226;-74
2021/05/03 07:00:11;;;;;;;1.03;1.00;;;8.90;99.90;;;;;;5029872;28;20186;-81
2021/05/03 07:02:38;;;;;;;1.60;1.30;;;9.20;99.90;;;;;;5027271;28;20207;-80
2021/05/03 07:05:04;;;;;;;1.37;1.00;;;9.20;99.90;;;;;;5028807;28;20436;-80
2021/05/03 07:07:30;;;;;;;1.40;1.00;;;9.30;99.90;;;;;;5028012;28;20175;-81
2021/05/03 07:09:56;;;;;;;0.93;0.80;;;8.80;99.90;;;;;;5029710;28;20189;-80
2021/05/03 07:12:23;;;;;;;0.93;0.83;;;8.50;99.90;;;;;;5028300;28;20249;-80
2021/05/03 07:14:49;;;;;;;3.13;1.73;;;8.60;99.90;;;;;;5028452;28;20806;-80
2021/05/03 07:17:15;;;;;;;0.83;0.70;;;8.80;99.90;;;;;;5027121;28;20701;-80
2021/05/03 07:19:41;;;;;;;0.90;0.80;;;9.10;99.90;;;;;;5027482;28;20187;-80
2021/05/03 07:22:08;;;;;;;2.83;0.77;;;9.40;99.90;;;;;;5026874;28;20712;-80
2021/05/03 07:24:35;;;;;;;0.77;0.77;;;9.50;99.90;;;;;;5029284;28;20667;-80
2021/05/03 07:27:01;;;;;;;1.47;0.93;;;9.60;99.90;;;;;;5028495;28;20218;-81
2021/05/03 07:29:27;;;;;;;2.20;1.43;;;9.40;99.90;;;;;;5028572;28;20183;-79
2021/05/03 07:31:52;;;;;;;0.80;0.80;;;9.30;99.90;;;;;;5027370;28;20285;-80
2021/05/03 07:34:18;;;;;;;1.90;0.83;;;9.10;99.90;;;;;;5026230;28;20190;-81
2021/05/03 07:36:46;;;;;;;1.10;0.77;;;9.40;99.90;;;;;;5027964;28;20603;-80
2021/05/03 07:39:12;;;;;;;1.30;1.10;;;9.60;99.90;;;;;;5025144;28;20217;-80
2021/05/03 07:41:40;;;;;;;1.13;1.00;;;9.90;99.90;;;;;;5023356;28;20591;-77
2021/05/03 07:44:06;;;;;;;1.80;0.97;;;10.10;99.90;;;;;;5021773;28;20274;-77
2021/05/03 07:46:32;;;;;;;0.80;0.80;;;10.20;99.90;;;;;;5023671;28;20266;-77
2021/05/03 07:48:59;;;;;;;2.27;0.93;;;10.40;99.90;;;;;;5023501;28;20586;-77
2021/05/03 07:51:25;;;;;;;1.13;0.90;;;10.20;99.90;;;;;;5024521;28;20187;-76
2021/05/03 07:53:52;;;;;;;2.83;0.70;;;10.30;99.90;;;;;;5025355;28;20190;-76
2021/05/03 07:56:18;;;;;;;1.27;0.70;;;10.30;99.90;;;;;;5025142;28;21132;-75
2021/05/03 07:58:45;;;;;;;0.87;0.87;;;10.30;99.90;;;;;;5025936;28;20186;-76
2021/05/03 08:01:11;;;;;;;0.73;0.60;;;10.20;99.90;;;;;;5025753;28;20191;-77
2021/05/03 08:03:39;;;;;;;1.00;0.80;;;10.30;99.90;;;;;;5024962;28;20290;-75
2021/05/03 08:06:06;;;;;;;0.90;0.73;;;10.40;99.90;;;;;;5025513;28;20569;-76
2021/05/03 08:08:31;;;;;;;1.23;1.13;;;10.60;99.90;;;;;;5025560;28;20183;-76
2021/05/03 08:10:57;;;;;;;0.67;0.67;;;10.60;99.90;;;;;;5026110;28;20190;-76
2021/05/03 08:13:24;;;;;;;0.77;0.50;;;10.50;99.90;;;;;;5025083;28;20637;-74
2021/05/03 08:15:51;;;;;;;0.57;0.57;;;10.90;99.90;;;;;;5025410;28;20682;-74
2021/05/03 08:18:17;;;;;;;0.60;0.60;;;11.40;99.90;;;;;;5027990;28;20601;-75
2021/05/03 08:20:43;;;;;;;0.90;0.70;;;11.40;99.90;;;;;;5026520;28;20193;-76
2021/05/03 08:23:09;;;;;;;0.50;0.50;;;11.50;99.90;;;;;;5025054;28;20214;-77
2021/05/03 08:25:36;;;;;;;0.47;0.47;;;11.30;99.90;;;;;;5024296;28;20194;-77
2021/05/03 08:28:02;;;;;;;0.40;0.40;;;11.20;99.90;;;;;;5023544;28;20438;-76
2021/05/03 08:30:27;;;;;;;0.50;0.50;;;11.00;99.90;;;;;;5025536;28;20217;-76
2021/05/03 08:32:53;;;;;;;0.80;0.80;;;10.90;99.90;;;;;;5025000;28;21024;-76
2021/05/03 08:35:19;;;;;;;0.80;0.70;;;10.50;99.90;;;;;;5024752;28;20286;-77
2021/05/03 08:37:46;;;;;;;0.60;0.47;;;9.70;99.90;;;;;;5025825;28;20550;-78
2021/05/03 08:40:13;;;;;;;0.60;0.60;;;9.50;99.90;;;;;;5029729;28;20695;-80
2021/05/03 08:42:40;;;;;;;0.50;0.50;;;9.40;99.90;;;;;;5026249;28;20260;-80
2021/05/03 08:45:08;;;;;;;0.50;0.50;;;9.60;99.90;;;;;;5027623;28;20226;-78
2021/05/03 08:47:36;;;;;;;1.50;0.70;;;10.00;99.90;;;;;;5029038;28;20261;-81
2021/05/03 08:50:12;;;;;;;0.80;0.60;;;10.10;99.90;;;;;;5029107;28;20210;-80
2021/05/03 08:55:04;;;;;;;1.13;0.80;;;10.20;99.90;;;;;;5027042;28;20215;-79
2021/05/03 08:57:30;;;;;;;0.40;0.40;;;10.20;99.90;;;;;;5024722;28;20616;-79
2021/05/03 08:59:55;;;;;;;0.87;0.73;;;10.00;99.90;;;;;;5028707;28;20202;-80
2021/05/03 09:02:22;;;;;;;0.67;0.60;;;9.80;99.90;;;;;;5026443;28;21198;-80
2021/05/03 09:04:47;;;;;;;0.80;0.80;;;9.90;99.90;;;;;;5028316;28;20329;-82
2021/05/03 09:07:15;;;;;;;1.07;0.80;;;10.10;99.90;;;;;;5027312;28;21231;-81
2021/05/03 09:09:41;;;;;;;1.50;1.03;;;10.30;99.90;;;;;;5028635;28;20194;-80
2021/05/03 09:12:10;;;;;;;0.93;0.70;;;10.40;99.90;;;;;;5027328;28;20191;-81
2021/05/03 09:14:49;;;;;;;2.67;2.00;;;10.50;99.90;;;;;;5026586;28;20482;-80
2021/05/03 09:17:35;;;;;;;1.70;1.60;;;10.50;99.90;;;;;;5028387;28;20191;-81
2021/05/03 09:20:07;;;;;;;1.20;1.10;;;10.90;99.90;;;;;;5028026;28;20193;-80
2021/05/03 09:22:49;;;;;;;1.03;0.97;;;11.10;99.90;;;;;;5027688;28;20319;-78
2021/05/03 09:25:26;;;;;;;1.30;1.10;;;11.30;99.90;;;;;;5026549;28;20283;-81
2021/05/03 09:28:15;;;;;;;1.90;1.37;;;11.80;99.90;;;;;;5029485;28;20182;-76
2021/05/03 09:30:45;;;;;;;1.10;1.00;;;12.00;99.90;;;;;;5031160;28;20297;-79
2021/05/03 09:33:11;;;;;;;0.80;0.80;;;12.00;99.90;;;;;;5028411;28;20602;-78
2021/05/03 09:36:05;;;;;;;1.23;1.13;;;12.30;99.90;;;;;;5029475;28;20207;-81
2021/05/03 09:38:40;;;;;;;1.50;1.00;;;12.20;99.90;;;;;;5025154;28;20595;-79
2021/05/03 09:41:18;;;;;;;1.30;1.20;;;12.20;99.90;;;;;;5024637;28;20191;-81
2021/05/03 09:44:05;;;;;;;0.98;0.85;;;12.30;99.90;;;;;;5027918;28;20232;-81
2021/05/03 09:46:35;;;;;;;1.58;1.00;;;12.70;99.90;;;;;;5026541;28;20539;-81
2021/05/03 09:49:08;;;;;;;3.42;1.17;;;12.80;99.90;;;;;;5027413;28;20183;-81
2021/05/03 09:51:57;;;;;;;1.52;1.40;;;12.90;99.90;;;;;;5027446;28;20677;-80
2021/05/03 09:54:31;;;;;;;1.23;1.13;;;12.80;99.90;;;;;;5027601;28;20194;-79
2021/05/03 09:57:06;;;;;;;1.88;1.20;;;12.40;99.90;;;;;;5027529;28;20242;-79
2021/05/03 09:59:40;;;;;;;1.33;1.23;;;12.60;99.90;;;;;;5025949;28;20190;-79
2021/05/03 10:02:09;;;;;;;1.45;1.30;;;12.80;99.90;;;;;;5027797;28;20595;-80
2021/05/03 10:04:36;;;;;;;0.90;0.90;;;12.70;99.90;;;;;;5026377;28;20205;-79
2021/05/03 10:07:03;;;;;;;1.70;1.27;;;13.00;99.90;;;;;;5027057;28;20691;-80
2021/05/03 10:09:30;;;;;;;1.48;1.17;;;13.20;99.90;;;;;;5025986;28;20179;-78
2021/05/03 10:11:56;;;;;;;1.13;1.00;;;13.30;99.90;;;;;;5026659;28;20179;-80
2021/05/03 10:14:22;;;;;;;1.98;1.30;;;13.20;99.90;;;;;;5026945;28;20316;-81
2021/05/03 10:16:49;;;;;;;1.00;0.90;;;13.20;99.90;;;;;;5027002;28;20187;-81
2021/05/03 10:19:21;;;;;;;1.23;1.13;;;13.20;99.90;;;;;;5027366;28;20178;-79
2021/05/03 10:21:47;;;;;;;1.23;1.02;;;13.20;99.90;;;;;;5026954;28;20518;-80
2021/05/03 10:24:14;;;;;;;2.83;1.38;;;13.40;99.90;;;;;;5026839;28;20182;-81
2021/05/03 10:26:41;;;;;;;1.90;1.40;;;13.10;99.90;;;;;;5027032;28;20258;-81
2021/05/03 10:29:07;;;;;;;1.38;1.20;;;13.10;99.90;;;;;;5025644;28;20562;-81
2021/05/03 10:32:00;;;;;;;2.08;1.20;;;13.20;99.90;;;;;;5027041;28;20182;-81
2021/05/03 10:34:42;;;;;;;1.65;1.15;;;13.30;99.90;;;;;;5026958;28;20183;-80
2021/05/03 10:37:37;;;;;;;1.50;1.30;;;13.40;99.90;;;;;;5027294;28;20683;-80
2021/05/03 10:40:13;;;;;;;0.98;0.90;;;13.30;99.90;;;;;;5025928;28;20190;-81
2021/05/03 10:42:59;;;;;;;0.90;0.90;;;13.20;99.90;;;;;;5025549;28;20248;-81
2021/05/03 10:48:45;;;;;;;1.10;1.00;;;13.40;99.90;;;;;;5025815;28;20201;-79
2021/05/03 10:51:28;;;;;;;1.08;0.98;;;13.50;99.90;;;;;;5027435;28;20660;-75
2021/05/03 10:53:54;;;;;;;1.00;0.95;;;13.30;99.90;;;;;;5028156;28;20179;-79
2021/05/03 10:56:38;;;;;;;1.52;1.10;;;13.40;99.90;;;;;;5026001;28;20232;-78
2021/05/03 10:59:11;;;;;;;1.20;1.10;;;13.40;99.90;;;;;;5027534;28;20175;-76
2021/05/03 11:01:52;;;;;;;1.00;0.90;;;13.30;99.90;;;;;;5032779;28;20202;-77
2021/05/03 11:04:20;;;;;;;1.75;1.25;;;13.10;99.90;;;;;;5032169;28;20198;-78
2021/05/03 11:06:48;;;;;;;2.53;1.02;;;13.10;99.90;;;;;;5033637;28;20186;-77
2021/05/03 11:09:36;;;;;;;1.50;1.40;;;13.20;99.90;;;;;;5030180;28;20175;-80
2021/05/03 11:12:06;;;;;;;1.38;1.23;;;13.00;99.90;;;;;;5028953;28;20182;-81
2021/05/03 11:14:40;;;;;;;1.38;1.05;;;13.00;99.90;;;;;;5027660;28;20198;-80
2021/05/03 11:17:12;;;;;;;2.38;1.45;;;13.20;99.90;;;;;;5025005;28;20239;-77
2021/05/03 11:22:52;;;;;;;2.15;1.20;;;13.20;99.90;;;;;;5028182;28;20712;-80
2021/05/03 11:25:26;;;;;;;0.85;0.82;;;13.10;99.90;;;;;;5024871;28;20199;-79
2021/05/03 11:28:12;;;;;;;1.13;1.00;;;13.20;99.90;;;;;;5026778;28;20194;-79
2021/05/03 11:30:54;;;;;;;1.50;1.08;;;13.30;99.90;;;;;;5027346;28;20167;-80
2021/05/03 11:33:33;;;;;;;1.42;1.33;;;13.20;99.90;;;;;;5022682;28;20491;-80
2021/05/03 11:36:16;;;;;;;1.40;1.30;;;13.40;99.90;;;;;;5025288;28;20207;-80
2021/05/03 11:46:36;;;;;;;3.33;1.40;;;13.60;99.90;;;;;;5026716;28;20202;-82
2021/05/03 11:49:11;;;;;;;1.20;1.02;;;13.50;99.90;;;;;;5027721;28;20178;-81
2021/05/03 11:51:46;;;;;;;3.05;1.00;;;13.70;99.90;;;;;;5026914;28;20233;-81
2021/05/03 11:54:24;;;;;;;1.00;0.95;;;13.90;99.90;;;;;;5027010;28;20189;-80
2021/05/03 11:57:03;;;;;;;1.17;1.08;;;14.20;99.90;;;;;;5025379;28;20179;-80
2021/05/03 11:59:30;;;;;;;1.45;1.13;;;14.10;99.90;;;;;;5027065;28;20186;-78
2021/05/03 12:02:02;;;;;;;1.17;1.08;;;14.10;99.90;;;;;;5027105;28;20407;-79
2021/05/03 12:04:38;;;;;;;1.30;1.20;;;14.00;99.90;;;;;;5026325;28;20168;-81
2021/05/03 12:07:32;;;;;;;1.23;0.90;;;14.30;99.90;;;;;;5026826;28;20178;-80
2021/05/03 12:10:04;;;;;;;2.67;1.25;;;14.40;99.80;;;;;;5022394;28;20195;-80
2021/05/03 12:12:35;;;;;;;1.08;1.00;;;14.20;98.20;;;;;;5040224;28;20184;-78
2021/05/03 12:15:01;;;;;;;0.82;0.82;;;14.30;98.90;;;;;;5024293;28;20213;-78
2021/05/03 12:17:29;;;;;;;0.88;0.80;;;14.40;98.20;;;;;;5022874;28;20270;-80
2021/05/03 12:20:02;;;;;;;1.17;0.98;;;14.70;97.00;;;;;;5032799;28;20200;-80
2021/05/03 12:22:28;;;;;;;1.10;0.80;;;15.10;96.60;;;;;;5024862;28;20206;-81
2021/05/03 12:24:59;;;;;;;0.80;0.73;;;15.20;96.90;;;;;;5023528;28;20211;-79
2021/05/03 12:27:28;;;;;;;1.00;0.98;;;15.10;95.70;;;;;;5034963;28;20257;-79
2021/05/03 12:29:54;;;;;;;1.30;1.20;;;14.90;95.10;;;;;;5028096;28;20186;-79
2021/05/03 12:32:21;;;;;;;1.25;0.95;;;15.00;93.50;;;;;;5025521;28;20186;-80
2021/05/03 12:34:51;;;;;;;0.80;0.70;;;15.40;96.50;;;;;;5021056;28;20770;-80
2021/05/03 12:37:19;;;;;;;1.10;1.00;;;15.70;93.70;;;;;;5041034;28;20203;-79
2021/05/03 12:40:12;;;;;;;1.23;0.88;;;15.70;92.10;;;;;;5029130;28;20248;-80
2021/05/03 12:42:43;;;;;;;1.45;1.10;;;15.70;92.70;;;;;;5028343;28;20191;-80
2021/05/03 12:45:47;;;;;;;2.30;0.80;;;15.70;92.50;;;;;;5028798;28;20203;-79
2021/05/03 13:00:04;;;;;;;0.90;0.90;;;15.00;92.40;;;;;;4986413;28;20181;-80
2021/05/03 13:05:12;;;;;;;1.77;1.00;;;14.80;90.80;;;;;;5027401;28;20203;-79
2021/05/03 13:30:01;;;;;;;1.00;0.90;;;14.80;90.60;;;;;;5026519;28;20274;-79
2021/05/03 13:32:30;;;;;;;1.00;1.00;;;14.70;90.00;;;;;;5031677;28;20201;-79
2021/05/03 13:34:58;;;;;;;1.50;0.77;;;14.70;90.80;;;;;;5024449;28;20199;-80
2021/05/03 13:37:24;;;;;;;0.95;0.90;;;14.90;89.80;;;;;;5034266;28;20206;-79
2021/05/03 13:39:50;;;;;;;0.85;0.85;;;15.00;89.00;;;;;;5026419;28;20179;-80
2021/05/03 13:42:16;;;;;;;1.00;0.90;;;15.20;87.30;;;;;;5023765;28;20204;-79
2021/05/03 13:44:44;;;;;;;1.05;0.70;;;15.20;89.00;;;;;;5026764;28;20191;-81
2021/05/03 13:47:10;;;;;;;1.25;1.00;;;15.10;86.20;;;;;;5028442;28;20190;-80
2021/05/03 13:49:36;;;;;;;1.63;0.90;;;14.90;85.10;;;;;;5027668;28;20215;-81
2021/05/03 13:52:04;;;;;;;1.02;0.70;;;15.00;87.10;;;;;;5028471;28;20175;-78
2021/05/03 13:54:30;;;;;;;0.95;0.85;;;15.30;87.50;;;;;;5027811;28;20645;-80
2021/05/03 13:57:00;;;;;;;1.52;0.95;;;15.80;85.50;;;;;;5025032;28;20523;-76
2021/05/03 13:59:26;;;;;;;0.63;0.63;;;16.00;84.50;;;;;;5027197;28;20232;-77
2021/05/03 14:01:52;;;;;;;1.20;0.90;;;15.70;83.40;;;;;;5024697;28;20265;-76
2021/05/03 14:04:18;;;;;;;1.05;0.88;;;15.40;83.60;;;;;;5024232;28;20179;-77
2021/05/03 14:06:46;;;;;;;0.88;0.60;;;15.50;82.00;;;;;;5038587;28;20194;-77
2021/05/03 14:09:11;;;;;;;1.10;1.00;;;15.60;82.50;;;;;;5020510;28;20249;-76